KSFZ/SFZ METAR and TAF weather

Enter ICAO airport designator
Station Type Date Time Source
KSFZ METAR 2019/12/07 05:03 UTC NOAA

KSFZ 070503Z AUTO 34007KT 10SM BKN022 00/M03 A3006 RMK AO2 FZRANO


Station Type Date Time Source
KSFZ Decoded METAR 2019/12/07 05:03 UTC NOAA

Pawtucket, North Central State Airport, RI, United States (KSFZ) 41-55N 071-30W
Dec 07, 2019 - 12:03 AM EST / 2019.12.07 0503 UTC
Wind: from the NNW (340 degrees) at 8 MPH (7 KT):0
Visibility: 10 mile(s):0
Sky conditions: mostly cloudy
Temperature: 32 F (0 C)
Windchill: 24 F (-4 C):1
Dew Point: 26 F (-3 C)
Relative Humidity: 80%
Pressure (altimeter): 30.06 in. Hg (1017 hPa)
ob: KSFZ 070503Z AUTO 34007KT 10SM BKN022 00/M03 A3006 RMK AO2 FZRANO
cycle: 5

Station Type Date Time Source
KSFZ TAF UTC NOAA

Error!

Example: see airport list